ESST/TYF METAR and TAF weather

Enter ICAO airport designator
Station Type Date Time Source
ESST METAR 2019/04/25 22:20 UTC NOAA

ESST 252220Z AUTO 07003KT 020V090 9999 SCT140/// 12/04 Q1017


Station Type Date Time Source
ESST Decoded METAR 2019/04/25 22:20 UTC NOAA

Station name not available
Apr 25, 2019 - 06:20 PM EDT / 2019.04.25 2220 UTC
Wind: from the ENE (070 degrees) at 3 MPH (3 KT) (direction variable):0
Visibility: greater than 7 mile(s):0
Sky conditions: partly cloudy
Temperature: 53 F (12 C)
Dew Point: 39 F (4 C)
Relative Humidity: 57%
Pressure (altimeter): 30.03 in. Hg (1017 hPa)
ob: ESST 252220Z AUTO 07003KT 020V090 9999 SCT140/// 12/04 Q1017
cycle: 22

Station Type Date Time Source
ESST TAF UTC NOAA

Error!

Example: see airport list